sensor_id;sensor_type;location;lat;lon;timestamp;pressure;altitude;pressure_sealevel;temperature;humidity
70690;BME280;58267;51.156;17.044;2022-12-20T00:01:33;101017.33;;;5.46;39.61
70690;BME280;58267;51.156;17.044;2022-12-20T00:03:59;101019.88;;;5.42;39.19
70690;BME280;58267;51.156;17.044;2022-12-20T00:06:24;101013.69;;;5.31;39.15
70690;BME280;58267;51.156;17.044;2022-12-20T00:08:53;101016.90;;;5.58;39.15
70690;BME280;58267;51.156;17.044;2022-12-20T00:11:13;101019.44;;;4.74;39.29
70690;BME280;58267;51.156;17.044;2022-12-20T00:13:39;101017.40;;;4.92;39.63
70690;BME280;58267;51.156;17.044;2022-12-20T00:16:06;101015.70;;;4.72;39.80
70690;BME280;58267;51.156;17.044;2022-12-20T00:18:30;101012.66;;;4.22;39.99
70690;BME280;58267;51.156;17.044;2022-12-20T00:20:57;101014.61;;;4.56;39.82
70690;BME280;58267;51.156;17.044;2022-12-20T00:23:21;101017.91;;;4.35;39.96
70690;BME280;58267;51.156;17.044;2022-12-20T00:25:46;101013.76;;;4.27;39.87
70690;BME280;58267;51.156;17.044;2022-12-20T00:28:12;101021.96;;;4.31;39.93
70690;BME280;58267;51.156;17.044;2022-12-20T00:30:37;101018.88;;;4.75;39.73
70690;BME280;58267;51.156;17.044;2022-12-20T00:33:03;101012.77;;;4.77;39.38
70690;BME280;58267;51.156;17.044;2022-12-20T00:35:28;101003.09;;;4.86;39.37
70690;BME280;58267;51.156;17.044;2022-12-20T00:37:54;101008.21;;;4.50;39.39
70690;BME280;58267;51.156;17.044;2022-12-20T00:40:19;101003.06;;;4.45;39.51
70690;BME280;58267;51.156;17.044;2022-12-20T00:42:44;100996.94;;;4.35;39.66
70690;BME280;58267;51.156;17.044;2022-12-20T00:45:10;100995.01;;;4.46;39.39
70690;BME280;58267;51.156;17.044;2022-12-20T00:47:35;100991.96;;;4.61;39.35
70690;BME280;58267;51.156;17.044;2022-12-20T00:50:00;101012.04;;;5.15;38.83
70690;BME280;58267;51.156;17.044;2022-12-20T00:52:25;101022.96;;;5.19;38.44
70690;BME280;58267;51.156;17.044;2022-12-20T00:54:50;101022.45;;;5.57;37.88
70690;BME280;58267;51.156;17.044;2022-12-20T00:57:15;101010.98;;;5.52;37.95
70690;BME280;58267;51.156;17.044;2022-12-20T00:59:41;101003.32;;;5.28;37.82
70690;BME280;58267;51.156;17.044;2022-12-20T01:02:06;100995.31;;;5.52;37.83
70690;BME280;58267;51.156;17.044;2022-12-20T01:04:31;100998.25;;;5.21;38.07
70690;BME280;58267;51.156;17.044;2022-12-20T01:06:56;100995.29;;;5.15;38.20
70690;BME280;58267;51.156;17.044;2022-12-20T01:09:22;100994.45;;;5.23;37.99
70690;BME280;58267;51.156;17.044;2022-12-20T01:11:47;101017.26;;;5.15;38.02
70690;BME280;58267;51.156;17.044;2022-12-20T01:14:15;101008.86;;;4.97;37.91
70690;BME280;58267;51.156;17.044;2022-12-20T01:16:40;101009.35;;;4.45;38.18
70690;BME280;58267;51.156;17.044;2022-12-20T01:19:04;101009.58;;;4.61;38.30
70690;BME280;58267;51.156;17.044;2022-12-20T01:21:28;101010.90;;;4.75;38.46
70690;BME280;58267;51.156;17.044;2022-12-20T01:23:55;101009.66;;;4.72;38.68
70690;BME280;58267;51.156;17.044;2022-12-20T01:26:21;101013.19;;;4.45;38.89
70690;BME280;58267;51.156;17.044;2022-12-20T01:28:46;101012.26;;;4.62;38.59
70690;BME280;58267;51.156;17.044;2022-12-20T01:31:11;101016.45;;;4.62;38.38
70690;BME280;58267;51.156;17.044;2022-12-20T01:33:36;101015.83;;;4.57;38.47
70690;BME280;58267;51.156;17.044;2022-12-20T01:36:03;101005.63;;;4.69;38.24
70690;BME280;58267;51.156;17.044;2022-12-20T01:38:27;100996.09;;;4.76;38.19
70690;BME280;58267;51.156;17.044;2022-12-20T01:40:51;100983.35;;;4.80;37.93
70690;BME280;58267;51.156;17.044;2022-12-20T01:43:17;100985.22;;;4.74;37.86
70690;BME280;58267;51.156;17.044;2022-12-20T01:45:42;100981.13;;;4.51;38.00
70690;BME280;58267;51.156;17.044;2022-12-20T01:48:08;100971.14;;;4.40;38.22
70690;BME280;58267;51.156;17.044;2022-12-20T01:50:33;100960.08;;;4.14;38.52
70690;BME280;58267;51.156;17.044;2022-12-20T01:52:58;100944.33;;;4.46;38.16
70690;BME280;58267;51.156;17.044;2022-12-20T01:55:25;100936.86;;;4.66;37.81
70690;BME280;58267;51.156;17.044;2022-12-20T01:57:51;100932.62;;;4.78;37.61
70690;BME280;58267;51.156;17.044;2022-12-20T02:00:15;100935.50;;;4.61;37.55
70690;BME280;58267;51.156;17.044;2022-12-20T02:02:40;100937.57;;;4.78;37.33
70690;BME280;58267;51.156;17.044;2022-12-20T02:05:05;100942.75;;;4.83;37.26
70690;BME280;58267;51.156;17.044;2022-12-20T02:07:32;100942.22;;;4.75;37.35
70690;BME280;58267;51.156;17.044;2022-12-20T02:09:57;100938.47;;;4.95;37.09
70690;BME280;58267;51.156;17.044;2022-12-20T02:12:23;100937.36;;;5.24;36.69
70690;BME280;58267;51.156;17.044;2022-12-20T02:14:58;100931.61;;;5.51;36.16
70690;BME280;58267;51.156;17.044;2022-12-20T02:17:19;100932.71;;;5.42;36.33
70690;BME280;58267;51.156;17.044;2022-12-20T02:19:52;100929.19;;;5.07;36.39
70690;BME280;58267;51.156;17.044;2022-12-20T02:22:08;100930.66;;;4.85;36.28
70690;BME280;58267;51.156;17.044;2022-12-20T02:27:06;100924.02;;;5.20;36.32
70690;BME280;58267;51.156;17.044;2022-12-20T02:29:24;100919.71;;;5.35;36.08
70690;BME280;58267;51.156;17.044;2022-12-20T02:31:48;100915.15;;;5.28;36.00
70690;BME280;58267;51.156;17.044;2022-12-20T02:34:10;100906.22;;;5.31;36.05
70690;BME280;58267;51.156;17.044;2022-12-20T02:36:35;100908.20;;;5.25;36.07
70690;BME280;58267;51.156;17.044;2022-12-20T02:39:00;100906.01;;;5.35;35.99
70690;BME280;58267;51.156;17.044;2022-12-20T02:41:31;100901.57;;;5.16;36.06
70690;BME280;58267;51.156;17.044;2022-12-20T02:43:54;100899.91;;;4.91;35.75
70690;BME280;58267;51.156;17.044;2022-12-20T02:46:19;100894.82;;;5.32;35.70
70690;BME280;58267;51.156;17.044;2022-12-20T02:48:45;100889.76;;;5.12;35.66
70690;BME280;58267;51.156;17.044;2022-12-20T02:51:10;100885.83;;;5.52;35.63
70690;BME280;58267;51.156;17.044;2022-12-20T02:53:34;100882.94;;;5.33;35.55
70690;BME280;58267;51.156;17.044;2022-12-20T02:56:04;100884.72;;;5.49;35.53
70690;BME280;58267;51.156;17.044;2022-12-20T02:58:31;100884.89;;;5.10;35.62
70690;BME280;58267;51.156;17.044;2022-12-20T03:00:54;100888.08;;;5.29;35.49
70690;BME280;58267;51.156;17.044;2022-12-20T03:03:17;100879.10;;;4.87;35.73
70690;BME280;58267;51.156;17.044;2022-12-20T03:05:44;100872.63;;;5.28;35.57
70690;BME280;58267;51.156;17.044;2022-12-20T03:08:08;100870.02;;;5.42;35.43
70690;BME280;58267;51.156;17.044;2022-12-20T03:10:33;100865.84;;;5.40;35.13
70690;BME280;58267;51.156;17.044;2022-12-20T03:12:58;100871.93;;;5.02;35.17
70690;BME280;58267;51.156;17.044;2022-12-20T03:15:23;100875.29;;;5.49;35.29
70690;BME280;58267;51.156;17.044;2022-12-20T03:17:48;100872.92;;;5.02;35.27
70690;BME280;58267;51.156;17.044;2022-12-20T03:20:14;100869.74;;;5.33;35.41
70690;BME280;58267;51.156;17.044;2022-12-20T03:22:39;100874.17;;;5.50;35.20
70690;BME280;58267;51.156;17.044;2022-12-20T03:25:06;100869.92;;;5.12;35.14
70690;BME280;58267;51.156;17.044;2022-12-20T03:27:31;100875.72;;;5.15;35.12
70690;BME280;58267;51.156;17.044;2022-12-20T03:29:56;100872.98;;;5.37;34.98
70690;BME280;58267;51.156;17.044;2022-12-20T03:32:22;100874.14;;;5.63;34.93
70690;BME280;58267;51.156;17.044;2022-12-20T03:34:47;100877.29;;;5.43;35.18
70690;BME280;58267;51.156;17.044;2022-12-20T03:37:13;100874.24;;;5.11;35.25
70690;BME280;58267;51.156;17.044;2022-12-20T03:39:38;100873.98;;;5.42;35.22
70690;BME280;58267;51.156;17.044;2022-12-20T03:42:04;100871.57;;;5.40;34.95
70690;BME280;58267;51.156;17.044;2022-12-20T03:44:30;100868.83;;;5.53;34.77
70690;BME280;58267;51.156;17.044;2022-12-20T03:46:55;100869.99;;;5.73;34.80
70690;BME280;58267;51.156;17.044;2022-12-20T03:49:21;100873.96;;;5.18;35.12
70690;BME280;58267;51.156;17.044;2022-12-20T03:51:46;100873.43;;;5.32;34.96
70690;BME280;58267;51.156;17.044;2022-12-20T03:54:12;100875.11;;;5.27;34.91
70690;BME280;58267;51.156;17.044;2022-12-20T03:56:37;100863.83;;;5.04;34.91
70690;BME280;58267;51.156;17.044;2022-12-20T03:59:03;100862.22;;;5.16;34.83
70690;BME280;58267;51.156;17.044;2022-12-20T04:01:29;100868.09;;;5.77;34.62
70690;BME280;58267;51.156;17.044;2022-12-20T04:03:54;100863.15;;;5.91;34.56
70690;BME280;58267;51.156;17.044;2022-12-20T04:06:20;100876.29;;;5.46;34.41
70690;BME280;58267;51.156;17.044;2022-12-20T04:08:45;100865.44;;;6.00;34.48
70690;BME280;58267;51.156;17.044;2022-12-20T04:11:11;100870.36;;;5.29;34.76
70690;BME280;58267;51.156;17.044;2022-12-20T04:13:36;100871.76;;;5.53;34.77
70690;BME280;58267;51.156;17.044;2022-12-20T04:16:01;100875.12;;;5.33;34.76
70690;BME280;58267;51.156;17.044;2022-12-20T04:18:27;100875.13;;;5.61;34.95
70690;BME280;58267;51.156;17.044;2022-12-20T04:20:52;100877.23;;;5.29;34.75
70690;BME280;58267;51.156;17.044;2022-12-20T04:23:17;100884.45;;;5.67;34.94
70690;BME280;58267;51.156;17.044;2022-12-20T04:25:43;100871.54;;;5.04;35.13
70690;BME280;58267;51.156;17.044;2022-12-20T04:28:08;100872.58;;;5.16;34.96
70690;BME280;58267;51.156;17.044;2022-12-20T04:30:34;100874.03;;;5.73;34.75
70690;BME280;58267;51.156;17.044;2022-12-20T04:33:00;100874.86;;;5.91;34.60
70690;BME280;58267;51.156;17.044;2022-12-20T04:35:25;100864.95;;;5.88;34.35
70690;BME280;58267;51.156;17.044;2022-12-20T04:37:50;100865.27;;;5.85;34.44
70690;BME280;58267;51.156;17.044;2022-12-20T04:40:16;100882.60;;;5.54;34.43
70690;BME280;58267;51.156;17.044;2022-12-20T04:42:41;100894.27;;;6.05;34.53
70690;BME280;58267;51.156;17.044;2022-12-20T04:45:08;100898.11;;;5.50;34.59
70690;BME280;58267;51.156;17.044;2022-12-20T04:47:33;100899.05;;;5.61;34.73
70690;BME280;58267;51.156;17.044;2022-12-20T04:49:58;100898.30;;;5.14;34.98
70690;BME280;58267;51.156;17.044;2022-12-20T04:52:23;100894.38;;;5.27;34.90
70690;BME280;58267;51.156;17.044;2022-12-20T04:54:49;100882.53;;;5.15;34.98
70690;BME280;58267;51.156;17.044;2022-12-20T04:57:14;100876.20;;;5.68;35.03
70690;BME280;58267;51.156;17.044;2022-12-20T04:59:40;100878.29;;;5.77;34.88
70690;BME280;58267;51.156;17.044;2022-12-20T05:02:05;100873.94;;;5.63;34.51
70690;BME280;58267;51.156;17.044;2022-12-20T05:04:30;100878.32;;;5.66;34.75
70690;BME280;58267;51.156;17.044;2022-12-20T05:06:55;100862.85;;;5.35;34.71
70690;BME280;58267;51.156;17.044;2022-12-20T05:09:22;100854.58;;;5.12;35.08
70690;BME280;58267;51.156;17.044;2022-12-20T05:11:46;100862.55;;;5.50;34.92
70690;BME280;58267;51.156;17.044;2022-12-20T05:14:12;100855.32;;;5.75;34.75
70690;BME280;58267;51.156;17.044;2022-12-20T05:16:37;100851.38;;;5.35;34.66
70690;BME280;58267;51.156;17.044;2022-12-20T05:19:04;100865.93;;;5.26;34.66
70690;BME280;58267;51.156;17.044;2022-12-20T05:21:30;100867.14;;;5.67;34.76
70690;BME280;58267;51.156;17.044;2022-12-20T05:23:56;100877.85;;;5.52;34.43
70690;BME280;58267;51.156;17.044;2022-12-20T05:26:22;100874.82;;;5.46;34.47
70690;BME280;58267;51.156;17.044;2022-12-20T05:28:46;100869.74;;;5.27;34.73
70690;BME280;58267;51.156;17.044;2022-12-20T05:31:12;100880.51;;;5.75;34.82
70690;BME280;58267;51.156;17.044;2022-12-20T05:33:37;100882.67;;;5.76;34.91
70690;BME280;58267;51.156;17.044;2022-12-20T05:36:03;100878.29;;;5.29;34.97
70690;BME280;58267;51.156;17.044;2022-12-20T05:38:27;100868.35;;;5.36;35.21
70690;BME280;58267;51.156;17.044;2022-12-20T05:40:53;100859.43;;;5.42;35.22
70690;BME280;58267;51.156;17.044;2022-12-20T05:43:19;100873.67;;;5.39;35.27
70690;BME280;58267;51.156;17.044;2022-12-20T05:45:45;100873.07;;;5.81;35.00
70690;BME280;58267;51.156;17.044;2022-12-20T05:48:09;100876.95;;;5.66;35.18
70690;BME280;58267;51.156;17.044;2022-12-20T05:50:40;100868.12;;;5.20;35.60
70690;BME280;58267;51.156;17.044;2022-12-20T05:53:00;100864.68;;;4.90;35.64
70690;BME280;58267;51.156;17.044;2022-12-20T05:55:25;100850.84;;;5.35;35.50
70690;BME280;58267;51.156;17.044;2022-12-20T05:57:51;100854.16;;;5.54;35.54
70690;BME280;58267;51.156;17.044;2022-12-20T06:00:16;100853.07;;;5.25;35.24
70690;BME280;58267;51.156;17.044;2022-12-20T06:02:41;100846.10;;;5.23;35.26
70690;BME280;58267;51.156;17.044;2022-12-20T06:05:06;100851.28;;;5.15;35.36
70690;BME280;58267;51.156;17.044;2022-12-20T06:07:31;100861.79;;;5.50;35.33
70690;BME280;58267;51.156;17.044;2022-12-20T06:09:57;100867.70;;;5.52;35.48
70690;BME280;58267;51.156;17.044;2022-12-20T06:12:22;100869.94;;;5.46;35.59
70690;BME280;58267;51.156;17.044;2022-12-20T06:14:48;100866.23;;;5.58;35.76
70690;BME280;58267;51.156;17.044;2022-12-20T06:17:13;100859.21;;;5.45;35.65
70690;BME280;58267;51.156;17.044;2022-12-20T06:19:39;100853.94;;;5.69;35.78
70690;BME280;58267;51.156;17.044;2022-12-20T06:22:05;100851.47;;;5.15;35.44
70690;BME280;58267;51.156;17.044;2022-12-20T06:24:30;100850.18;;;5.54;35.23
70690;BME280;58267;51.156;17.044;2022-12-20T06:26:57;100846.80;;;5.46;35.34
70690;BME280;58267;51.156;17.044;2022-12-20T06:29:22;100849.51;;;5.47;35.42
70690;BME280;58267;51.156;17.044;2022-12-20T06:31:47;100853.05;;;5.41;35.61
70690;BME280;58267;51.156;17.044;2022-12-20T06:34:13;100856.89;;;5.57;35.72
70690;BME280;58267;51.156;17.044;2022-12-20T06:36:38;100856.08;;;6.02;35.22
70690;BME280;58267;51.156;17.044;2022-12-20T06:39:05;100861.50;;;5.59;35.17
70690;BME280;58267;51.156;17.044;2022-12-20T06:41:29;100860.34;;;5.82;35.28
70690;BME280;58267;51.156;17.044;2022-12-20T06:43:55;100858.28;;;5.88;35.28
70690;BME280;58267;51.156;17.044;2022-12-20T06:46:26;100854.78;;;5.71;35.19
70690;BME280;58267;51.156;17.044;2022-12-20T06:48:46;100852.96;;;5.82;34.95
70690;BME280;58267;51.156;17.044;2022-12-20T06:51:11;100848.50;;;5.74;34.96
70690;BME280;58267;51.156;17.044;2022-12-20T06:53:37;100851.36;;;5.74;35.04
70690;BME280;58267;51.156;17.044;2022-12-20T06:56:02;100857.06;;;5.74;35.05
70690;BME280;58267;51.156;17.044;2022-12-20T06:58:27;100861.02;;;5.69;35.17
70690;BME280;58267;51.156;17.044;2022-12-20T07:00:53;100859.05;;;5.65;35.44
70690;BME280;58267;51.156;17.044;2022-12-20T07:03:18;100851.27;;;5.79;35.16
70690;BME280;58267;51.156;17.044;2022-12-20T07:05:43;100856.93;;;6.09;34.61
70690;BME280;58267;51.156;17.044;2022-12-20T07:08:09;100854.68;;;5.76;35.10
70690;BME280;58267;51.156;17.044;2022-12-20T07:10:35;100851.10;;;5.82;35.06
70690;BME280;58267;51.156;17.044;2022-12-20T07:13:01;100860.79;;;5.83;35.15
70690;BME280;58267;51.156;17.044;2022-12-20T07:15:26;100855.67;;;5.78;35.19
70690;BME280;58267;51.156;17.044;2022-12-20T07:17:52;100859.74;;;5.82;35.10
70690;BME280;58267;51.156;17.044;2022-12-20T07:20:18;100858.53;;;5.99;34.93
70690;BME280;58267;51.156;17.044;2022-12-20T07:22:43;100858.64;;;6.11;34.83
70690;BME280;58267;51.156;17.044;2022-12-20T07:25:08;100862.08;;;6.12;34.79
70690;BME280;58267;51.156;17.044;2022-12-20T07:27:34;100860.73;;;6.16;34.70
70690;BME280;58267;51.156;17.044;2022-12-20T07:30:00;100860.83;;;6.00;34.64
70690;BME280;58267;51.156;17.044;2022-12-20T07:32:25;100858.13;;;6.15;34.65
70690;BME280;58267;51.156;17.044;2022-12-20T07:34:51;100850.92;;;6.04;34.85
70690;BME280;58267;51.156;17.044;2022-12-20T07:37:16;100854.26;;;6.11;34.82
70690;BME280;58267;51.156;17.044;2022-12-20T07:39:41;100853.24;;;6.19;34.75
70690;BME280;58267;51.156;17.044;2022-12-20T07:42:07;100843.41;;;6.36;34.54
70690;BME280;58267;51.156;17.044;2022-12-20T07:44:33;100855.06;;;6.10;34.85
70690;BME280;58267;51.156;17.044;2022-12-20T07:46:58;100841.31;;;6.36;34.67
70690;BME280;58267;51.156;17.044;2022-12-20T07:49:24;100851.33;;;6.00;34.89
70690;BME280;58267;51.156;17.044;2022-12-20T07:51:51;100854.06;;;6.08;34.91
70690;BME280;58267;51.156;17.044;2022-12-20T07:54:18;100859.43;;;6.27;35.01
70690;BME280;58267;51.156;17.044;2022-12-20T07:56:42;100854.21;;;6.40;34.95
70690;BME280;58267;51.156;17.044;2022-12-20T07:59:05;100849.07;;;6.41;34.93
70690;BME280;58267;51.156;17.044;2022-12-20T08:01:30;100845.99;;;6.44;34.91
70690;BME280;58267;51.156;17.044;2022-12-20T08:03:58;100839.17;;;6.33;34.97
70690;BME280;58267;51.156;17.044;2022-12-20T08:06:21;100836.23;;;6.43;34.81
70690;BME280;58267;51.156;17.044;2022-12-20T08:08:50;100837.18;;;6.49;34.71
70690;BME280;58267;51.156;17.044;2022-12-20T08:11:13;100836.41;;;6.23;34.68
70690;BME280;58267;51.156;17.044;2022-12-20T08:13:39;100836.06;;;6.23;34.68
70690;BME280;58267;51.156;17.044;2022-12-20T08:16:05;100836.34;;;6.20;34.87
70690;BME280;58267;51.156;17.044;2022-12-20T08:18:29;100829.71;;;6.33;34.75
70690;BME280;58267;51.156;17.044;2022-12-20T08:20:55;100823.83;;;6.71;34.55
70690;BME280;58267;51.156;17.044;2022-12-20T08:23:20;100830.03;;;6.45;34.63
70690;BME280;58267;51.156;17.044;2022-12-20T08:25:45;100820.17;;;6.48;34.61
70690;BME280;58267;51.156;17.044;2022-12-20T08:28:11;100816.80;;;6.42;34.72
70690;BME280;58267;51.156;17.044;2022-12-20T08:30:37;100817.82;;;6.47;35.24
70690;BME280;58267;51.156;17.044;2022-12-20T08:33:02;100815.84;;;6.49;34.71
70690;BME280;58267;51.156;17.044;2022-12-20T08:35:29;100826.13;;;6.38;35.07
70690;BME280;58267;51.156;17.044;2022-12-20T08:37:54;100836.26;;;6.51;34.94
70690;BME280;58267;51.156;17.044;2022-12-20T08:40:20;100847.93;;;6.44;34.99
70690;BME280;58267;51.156;17.044;2022-12-20T08:42:44;100852.36;;;6.58;34.81
70690;BME280;58267;51.156;17.044;2022-12-20T08:45:11;100865.56;;;6.43;34.82
70690;BME280;58267;51.156;17.044;2022-12-20T08:47:36;100862.04;;;6.36;34.96
70690;BME280;58267;51.156;17.044;2022-12-20T08:50:01;100857.11;;;5.93;35.13
70690;BME280;58267;51.156;17.044;2022-12-20T08:52:28;100856.01;;;6.15;35.32
70690;BME280;58267;51.156;17.044;2022-12-20T08:54:53;100848.69;;;6.29;35.16
70690;BME280;58267;51.156;17.044;2022-12-20T08:57:18;100856.67;;;6.00;35.26
70690;BME280;58267;51.156;17.044;2022-12-20T08:59:43;100856.12;;;6.31;35.19
70690;BME280;58267;51.156;17.044;2022-12-20T09:02:09;100847.99;;;6.29;35.21
70690;BME280;58267;51.156;17.044;2022-12-20T09:04:35;100846.32;;;6.40;34.84
70690;BME280;58267;51.156;17.044;2022-12-20T09:07:00;100849.09;;;6.70;34.47
70690;BME280;58267;51.156;17.044;2022-12-20T09:09:25;100848.98;;;6.78;34.38
70690;BME280;58267;51.156;17.044;2022-12-20T09:11:51;100851.09;;;6.68;34.40
70690;BME280;58267;51.156;17.044;2022-12-20T09:14:16;100855.52;;;7.04;34.05
70690;BME280;58267;51.156;17.044;2022-12-20T09:16:42;100852.38;;;6.89;34.05
70690;BME280;58267;51.156;17.044;2022-12-20T09:19:09;100838.72;;;7.14;34.01
70690;BME280;58267;51.156;17.044;2022-12-20T09:21:33;100839.02;;;7.09;33.83
70690;BME280;58267;51.156;17.044;2022-12-20T09:23:58;100838.79;;;6.89;33.89
70690;BME280;58267;51.156;17.044;2022-12-20T09:26:24;100830.27;;;6.90;34.05
70690;BME280;58267;51.156;17.044;2022-12-20T09:28:50;100830.90;;;7.00;33.93
70690;BME280;58267;51.156;17.044;2022-12-20T09:31:16;100826.63;;;7.23;33.74
70690;BME280;58267;51.156;17.044;2022-12-20T09:33:40;100822.26;;;7.41;33.59
70690;BME280;58267;51.156;17.044;2022-12-20T09:36:09;100819.47;;;7.22;33.51
70690;BME280;58267;51.156;17.044;2022-12-20T09:38:31;100821.10;;;7.20;33.44
70690;BME280;58267;51.156;17.044;2022-12-20T09:40:58;100817.13;;;7.54;33.50
70690;BME280;58267;51.156;17.044;2022-12-20T09:43:21;100809.31;;;7.76;33.27
70690;BME280;58267;51.156;17.044;2022-12-20T09:45:49;100803.20;;;7.48;33.31
70690;BME280;58267;51.156;17.044;2022-12-20T09:48:16;100800.33;;;7.42;33.33
70690;BME280;58267;51.156;17.044;2022-12-20T09:50:43;100799.29;;;7.20;33.38
70690;BME280;58267;51.156;17.044;2022-12-20T09:53:11;100807.40;;;7.54;33.27
70690;BME280;58267;51.156;17.044;2022-12-20T09:55:33;100809.02;;;7.35;33.24
70690;BME280;58267;51.156;17.044;2022-12-20T09:58:02;100814.78;;;7.33;33.02
70690;BME280;58267;51.156;17.044;2022-12-20T10:00:20;100816.01;;;7.74;33.12
70690;BME280;58267;51.156;17.044;2022-12-20T10:02:44;100814.17;;;7.53;33.08
70690;BME280;58267;51.156;17.044;2022-12-20T10:05:14;100807.57;;;7.78;32.89
70690;BME280;58267;51.156;17.044;2022-12-20T10:07:38;100805.44;;;7.78;32.70
70690;BME280;58267;51.156;17.044;2022-12-20T10:10:15;100812.42;;;7.75;32.57
70690;BME280;58267;51.156;17.044;2022-12-20T10:12:32;100822.61;;;7.85;32.69
70690;BME280;58267;51.156;17.044;2022-12-20T10:15:06;100828.74;;;7.59;32.74
70690;BME280;58267;51.156;17.044;2022-12-20T10:17:24;100836.49;;;7.49;32.61
70690;BME280;58267;51.156;17.044;2022-12-20T10:19:59;100829.53;;;7.65;32.71
70690;BME280;58267;51.156;17.044;2022-12-20T10:22:13;100827.80;;;8.01;32.66
70690;BME280;58267;51.156;17.044;2022-12-20T10:24:35;100832.65;;;7.71;32.59
70690;BME280;58267;51.156;17.044;2022-12-20T10:27:06;100832.34;;;7.45;32.80
70690;BME280;58267;51.156;17.044;2022-12-20T10:29:23;100813.45;;;7.71;32.87
70690;BME280;58267;51.156;17.044;2022-12-20T10:31:50;100809.51;;;8.08;32.84
70690;BME280;58267;51.156;17.044;2022-12-20T10:34:14;100818.27;;;7.96;32.70
70690;BME280;58267;51.156;17.044;2022-12-20T10:36:41;100804.97;;;7.73;32.95
70690;BME280;58267;51.156;17.044;2022-12-20T10:39:08;100799.43;;;7.55;33.08
70690;BME280;58267;51.156;17.044;2022-12-20T10:41:44;100808.69;;;7.64;32.96
70690;BME280;58267;51.156;17.044;2022-12-20T10:44:00;100809.62;;;7.89;32.78
70690;BME280;58267;51.156;17.044;2022-12-20T10:46:22;100803.28;;;8.27;32.48
70690;BME280;58267;51.156;17.044;2022-12-20T10:48:48;100791.79;;;8.47;32.52
70690;BME280;58267;51.156;17.044;2022-12-20T10:51:17;100787.61;;;8.21;32.48
70690;BME280;58267;51.156;17.044;2022-12-20T10:53:50;100784.70;;;8.29;32.31
70690;BME280;58267;51.156;17.044;2022-12-20T10:56:14;100784.33;;;8.78;32.03
70690;BME280;58267;51.156;17.044;2022-12-20T10:58:34;100782.77;;;8.63;32.07
70690;BME280;58267;51.156;17.044;2022-12-20T11:01:03;100781.58;;;8.68;32.05
70690;BME280;58267;51.156;17.044;2022-12-20T11:03:22;100771.95;;;8.88;31.74
70690;BME280;58267;51.156;17.044;2022-12-20T11:05:52;100764.77;;;8.66;31.69
70690;BME280;58267;51.156;17.044;2022-12-20T11:08:15;100761.10;;;9.12;31.50
70690;BME280;58267;51.156;17.044;2022-12-20T11:10:37;100768.20;;;8.87;31.39
70690;BME280;58267;51.156;17.044;2022-12-20T11:13:03;100769.15;;;9.03;31.55
70690;BME280;58267;51.156;17.044;2022-12-20T11:15:30;100766.05;;;8.71;31.51
70690;BME280;58267;51.156;17.044;2022-12-20T11:17:57;100766.87;;;8.80;31.41
70690;BME280;58267;51.156;17.044;2022-12-20T11:20:27;100759.94;;;8.92;31.32
70690;BME280;58267;51.156;17.044;2022-12-20T11:22:50;100759.20;;;9.21;31.36
70690;BME280;58267;51.156;17.044;2022-12-20T11:25:20;100756.25;;;8.88;31.37
70690;BME280;58267;51.156;17.044;2022-12-20T11:27:39;100751.61;;;8.70;31.33
70690;BME280;58267;51.156;17.044;2022-12-20T11:30:09;100761.12;;;9.05;31.34
70690;BME280;58267;51.156;17.044;2022-12-20T11:32:36;100759.11;;;9.17;31.42
70690;BME280;58267;51.156;17.044;2022-12-20T11:34:59;100749.32;;;9.04;31.24
70690;BME280;58267;51.156;17.044;2022-12-20T11:37:20;100749.56;;;8.89;31.65
70690;BME280;58267;51.156;17.044;2022-12-20T11:39:54;100744.77;;;8.91;31.67
70690;BME280;58267;51.156;17.044;2022-12-20T11:42:14;100745.52;;;8.81;31.67
70690;BME280;58267;51.156;17.044;2022-12-20T11:44:46;100740.11;;;8.93;31.54
70690;BME280;58267;51.156;17.044;2022-12-20T11:47:12;100734.61;;;9.16;31.60
70690;BME280;58267;51.156;17.044;2022-12-20T11:49:39;100737.02;;;8.62;31.75
70690;BME280;58267;51.156;17.044;2022-12-20T11:51:57;100744.40;;;8.77;31.71
70690;BME280;58267;51.156;17.044;2022-12-20T11:54:22;100743.49;;;9.22;31.58
70690;BME280;58267;51.156;17.044;2022-12-20T11:56:43;100734.93;;;8.69;31.68
70690;BME280;58267;51.156;17.044;2022-12-20T11:59:15;100731.08;;;9.13;31.60
70690;BME280;58267;51.156;17.044;2022-12-20T12:01:37;100743.34;;;8.77;31.79
70690;BME280;58267;51.156;17.044;2022-12-20T12:04:04;100753.32;;;9.11;31.77
70690;BME280;58267;51.156;17.044;2022-12-20T12:06:27;100747.08;;;8.93;31.74
70690;BME280;58267;51.156;17.044;2022-12-20T12:09:04;100743.23;;;8.81;31.75
70690;BME280;58267;51.156;17.044;2022-12-20T12:11:19;100739.72;;;8.71;31.70
70690;BME280;58267;51.156;17.044;2022-12-20T12:13:42;100742.65;;;8.62;31.79
70690;BME280;58267;51.156;17.044;2022-12-20T12:16:09;100745.32;;;8.94;31.84
70690;BME280;58267;51.156;17.044;2022-12-20T12:18:33;100738.89;;;8.56;31.93
70690;BME280;58267;51.156;17.044;2022-12-20T12:21:01;100742.53;;;8.62;31.83
70690;BME280;58267;51.156;17.044;2022-12-20T12:23:26;100744.00;;;8.54;32.02
70690;BME280;58267;51.156;17.044;2022-12-20T12:25:49;100747.17;;;8.54;32.24
70690;BME280;58267;51.156;17.044;2022-12-20T12:28:14;100749.37;;;8.80;32.20
70690;BME280;58267;51.156;17.044;2022-12-20T12:30:44;100742.57;;;8.81;32.06
70690;BME280;58267;51.156;17.044;2022-12-20T12:33:09;100736.44;;;8.70;32.26
70690;BME280;58267;51.156;17.044;2022-12-20T12:35:42;100733.91;;;8.51;32.33
70690;BME280;58267;51.156;17.044;2022-12-20T12:38:03;100729.87;;;8.65;32.49
70690;BME280;58267;51.156;17.044;2022-12-20T12:40:30;100724.09;;;8.58;32.51
70690;BME280;58267;51.156;17.044;2022-12-20T12:43:01;100733.80;;;8.58;32.64